sensor_id;sensor_type;location;lat;lon;timestamp;P1;P2;P0
75960;PMS7003;64644;48.914;2.254;2024-01-27T00:01:46;68.50;56.00;36.50
75960;PMS7003;64644;48.914;2.254;2024-01-27T00:04:12;64.67;53.00;35.33
75960;PMS7003;64644;48.914;2.254;2024-01-27T00:06:37;64.25;50.25;33.75
75960;PMS7003;64644;48.914;2.254;2024-01-27T00:09:03;55.50;48.00;32.50
75960;PMS7003;64644;48.914;2.254;2024-01-27T00:11:30;61.00;52.25;35.75
75960;PMS7003;64644;48.914;2.254;2024-01-27T00:13:56;65.00;51.50;36.50
75960;PMS7003;64644;48.914;2.254;2024-01-27T00:16:24;58.75;51.00;34.00
75960;PMS7003;64644;48.914;2.254;2024-01-27T00:18:49;56.75;47.25;31.00
75960;PMS7003;64644;48.914;2.254;2024-01-27T00:21:14;55.00;44.33;26.00
75960;PMS7003;64644;48.914;2.254;2024-01-27T00:23:39;65.67;52.33;34.33
75960;PMS7003;64644;48.914;2.254;2024-01-27T00:26:06;55.25;48.25;33.75
75960;PMS7003;64644;48.914;2.254;2024-01-27T00:28:31;72.25;59.50;37.25
75960;PMS7003;64644;48.914;2.254;2024-01-27T00:30:56;67.50;55.75;35.50
75960;PMS7003;64644;48.914;2.254;2024-01-27T00:33:22;73.00;59.67;40.00
75960;PMS7003;64644;48.914;2.254;2024-01-27T00:35:47;73.50;57.00;37.75
75960;PMS7003;64644;48.914;2.254;2024-01-27T00:38:12;65.50;50.50;33.00
75960;PMS7003;64644;48.914;2.254;2024-01-27T00:40:38;60.50;48.75;31.25
75960;PMS7003;64644;48.914;2.254;2024-01-27T00:43:03;64.00;51.25;35.50
75960;PMS7003;64644;48.914;2.254;2024-01-27T00:45:29;64.75;51.75;35.25
75960;PMS7003;64644;48.914;2.254;2024-01-27T00:47:55;56.75;48.25;34.25
75960;PMS7003;64644;48.914;2.254;2024-01-27T00:50:23;52.00;46.25;26.75
75960;PMS7003;64644;48.914;2.254;2024-01-27T00:52:49;59.50;50.00;33.75
75960;PMS7003;64644;48.914;2.254;2024-01-27T00:55:14;63.00;50.33;33.00
75960;PMS7003;64644;48.914;2.254;2024-01-27T00:57:40;64.25;52.25;36.00
75960;PMS7003;64644;48.914;2.254;2024-01-27T01:00:08;63.25;49.50;33.00
75960;PMS7003;64644;48.914;2.254;2024-01-27T01:02:35;59.00;51.00;34.00
75960;PMS7003;64644;48.914;2.254;2024-01-27T01:05:02;61.25;51.00;32.50
75960;PMS7003;64644;48.914;2.254;2024-01-27T01:07:29;60.50;52.00;37.75
75960;PMS7003;64644;48.914;2.254;2024-01-27T01:09:57;67.50;55.50;34.25
75960;PMS7003;64644;48.914;2.254;2024-01-27T01:12:22;63.75;51.00;35.75
75960;PMS7003;64644;48.914;2.254;2024-01-27T01:14:48;69.00;52.50;35.75
75960;PMS7003;64644;48.914;2.254;2024-01-27T01:17:13;74.75;58.00;37.00
75960;PMS7003;64644;48.914;2.254;2024-01-27T01:19:40;64.00;52.25;34.00
75960;PMS7003;64644;48.914;2.254;2024-01-27T01:22:06;43.25;42.00;26.00
75960;PMS7003;64644;48.914;2.254;2024-01-27T01:24:32;53.75;47.25;33.75
75960;PMS7003;64644;48.914;2.254;2024-01-27T01:26:57;65.25;52.50;35.75
75960;PMS7003;64644;48.914;2.254;2024-01-27T01:29:22;56.33;49.33;32.67
75960;PMS7003;64644;48.914;2.254;2024-01-27T01:31:48;67.75;52.75;34.50
75960;PMS7003;64644;48.914;2.254;2024-01-27T01:34:13;68.50;55.00;36.25
75960;PMS7003;64644;48.914;2.254;2024-01-27T01:36:39;63.25;52.00;33.50
75960;PMS7003;64644;48.914;2.254;2024-01-27T01:39:04;68.75;53.75;33.00
75960;PMS7003;64644;48.914;2.254;2024-01-27T01:41:30;60.75;52.00;33.00
75960;PMS7003;64644;48.914;2.254;2024-01-27T01:43:55;69.00;55.67;37.00
75960;PMS7003;64644;48.914;2.254;2024-01-27T01:46:21;62.67;52.00;36.00
75960;PMS7003;64644;48.914;2.254;2024-01-27T01:48:48;64.25;53.25;36.75
75960;PMS7003;64644;48.914;2.254;2024-01-27T01:51:14;63.75;50.50;33.75
75960;PMS7003;64644;48.914;2.254;2024-01-27T01:53:39;71.00;57.50;37.50
75960;PMS7003;64644;48.914;2.254;2024-01-27T01:56:05;69.00;56.25;35.00
75960;PMS7003;64644;48.914;2.254;2024-01-27T01:58:33;64.50;55.50;38.00
75960;PMS7003;64644;48.914;2.254;2024-01-27T02:00:59;73.75;59.00;37.25
75960;PMS7003;64644;48.914;2.254;2024-01-27T02:03:25;67.75;56.75;38.00
75960;PMS7003;64644;48.914;2.254;2024-01-27T02:05:51;77.00;60.25;39.75
75960;PMS7003;64644;48.914;2.254;2024-01-27T02:08:16;70.75;58.50;39.00
75960;PMS7003;64644;48.914;2.254;2024-01-27T02:10:42;66.25;56.25;37.25
75960;PMS7003;64644;48.914;2.254;2024-01-27T02:13:23;46.50;43.25;24.50
75960;PMS7003;64644;48.914;2.254;2024-01-27T02:15:49;68.00;56.50;38.25
75960;PMS7003;64644;48.914;2.254;2024-01-27T02:18:15;69.75;55.00;34.75
75960;PMS7003;64644;48.914;2.254;2024-01-27T02:20:42;70.00;55.00;37.75
75960;PMS7003;64644;48.914;2.254;2024-01-27T02:23:07;69.00;56.50;38.50
75960;PMS7003;64644;48.914;2.254;2024-01-27T02:25:33;61.00;51.00;35.50
75960;PMS7003;64644;48.914;2.254;2024-01-27T02:27:59;61.00;52.50;35.00
75960;PMS7003;64644;48.914;2.254;2024-01-27T02:30:26;65.50;53.00;35.25
75960;PMS7003;64644;48.914;2.254;2024-01-27T02:32:51;56.33;49.67;35.33
75960;PMS7003;64644;48.914;2.254;2024-01-27T02:35:17;66.00;52.50;34.75
75960;PMS7003;64644;48.914;2.254;2024-01-27T02:37:42;68.00;51.50;35.00
75960;PMS7003;64644;48.914;2.254;2024-01-27T02:40:08;58.00;50.67;34.33
75960;PMS7003;64644;48.914;2.254;2024-01-27T02:42:37;58.25;49.50;34.50
75960;PMS7003;64644;48.914;2.254;2024-01-27T02:45:02;65.25;50.25;32.50
75960;PMS7003;64644;48.914;2.254;2024-01-27T02:47:28;60.50;49.25;33.00
75960;PMS7003;64644;48.914;2.254;2024-01-27T02:49:54;64.25;51.50;33.25
75960;PMS7003;64644;48.914;2.254;2024-01-27T02:52:19;52.33;47.00;32.33
75960;PMS7003;64644;48.914;2.254;2024-01-27T02:54:45;53.50;47.00;32.50
75960;PMS7003;64644;48.914;2.254;2024-01-27T02:57:10;45.33;41.33;26.00
75960;PMS7003;64644;48.914;2.254;2024-01-27T02:59:36;55.00;47.00;32.25
75960;PMS7003;64644;48.914;2.254;2024-01-27T03:02:03;49.00;43.75;31.50
75960;PMS7003;64644;48.914;2.254;2024-01-27T03:04:29;59.50;49.25;31.25
75960;PMS7003;64644;48.914;2.254;2024-01-27T03:06:54;50.67;46.00;32.00
75960;PMS7003;64644;48.914;2.254;2024-01-27T03:09:20;52.00;44.33;31.67
75960;PMS7003;64644;48.914;2.254;2024-01-27T03:11:45;56.33;47.33;32.00
75960;PMS7003;64644;48.914;2.254;2024-01-27T03:14:10;56.00;48.00;32.00
75960;PMS7003;64644;48.914;2.254;2024-01-27T03:16:36;51.75;44.75;32.00
75960;PMS7003;64644;48.914;2.254;2024-01-27T03:19:01;53.67;47.67;32.67
75960;PMS7003;64644;48.914;2.254;2024-01-27T03:21:27;48.25;43.75;29.00
75960;PMS7003;64644;48.914;2.254;2024-01-27T03:23:52;58.00;48.75;30.75
75960;PMS7003;64644;48.914;2.254;2024-01-27T03:26:18;54.25;47.50;32.75
75960;PMS7003;64644;48.914;2.254;2024-01-27T03:28:43;52.25;44.75;29.50
75960;PMS7003;64644;48.914;2.254;2024-01-27T03:31:08;44.33;43.67;30.00
75960;PMS7003;64644;48.914;2.254;2024-01-27T03:33:34;43.75;39.75;29.00
75960;PMS7003;64644;48.914;2.254;2024-01-27T03:35:59;50.50;45.00;31.75
75960;PMS7003;64644;48.914;2.254;2024-01-27T03:38:24;44.00;43.00;29.00
75960;PMS7003;64644;48.914;2.254;2024-01-27T03:40:49;34.00;34.00;22.67
75960;PMS7003;64644;48.914;2.254;2024-01-27T03:43:15;47.00;41.00;27.00
75960;PMS7003;64644;48.914;2.254;2024-01-27T03:45:40;42.75;35.75;27.75
75960;PMS7003;64644;48.914;2.254;2024-01-27T03:48:06;35.67;34.00;22.00
75960;PMS7003;64644;48.914;2.254;2024-01-27T03:50:31;30.00;26.00;22.50
75960;PMS7003;64644;48.914;2.254;2024-01-27T03:52:57;46.50;41.50;26.25
75960;PMS7003;64644;48.914;2.254;2024-01-27T03:55:22;39.67;34.67;24.00
75960;PMS7003;64644;48.914;2.254;2024-01-27T03:57:47;39.25;37.50;25.00
75960;PMS7003;64644;48.914;2.254;2024-01-27T04:00:13;34.00;31.33;24.00
75960;PMS7003;64644;48.914;2.254;2024-01-27T04:02:38;27.00;27.00;19.75
75960;PMS7003;64644;48.914;2.254;2024-01-27T04:05:05;37.25;34.25;21.25
75960;PMS7003;64644;48.914;2.254;2024-01-27T04:07:31;35.50;31.00;21.50
75960;PMS7003;64644;48.914;2.254;2024-01-27T04:09:56;37.00;33.33;22.00
75960;PMS7003;64644;48.914;2.254;2024-01-27T04:12:21;22.00;20.33;13.00
75960;PMS7003;64644;48.914;2.254;2024-01-27T04:14:47;29.00;27.00;19.50
75960;PMS7003;64644;48.914;2.254;2024-01-27T04:17:12;33.00;31.33;22.00
75960;PMS7003;64644;48.914;2.254;2024-01-27T04:19:37;34.00;34.00;21.67
75960;PMS7003;64644;48.914;2.254;2024-01-27T04:22:03;35.00;31.00;23.00
75960;PMS7003;64644;48.914;2.254;2024-01-27T04:24:28;29.00;26.75;19.25
75960;PMS7003;64644;48.914;2.254;2024-01-27T04:26:54;29.75;29.75;21.50
75960;PMS7003;64644;48.914;2.254;2024-01-27T04:29:19;38.00;34.75;24.50
75960;PMS7003;64644;48.914;2.254;2024-01-27T04:31:44;29.25;28.00;20.25
75960;PMS7003;64644;48.914;2.254;2024-01-27T04:34:10;28.00;22.33;19.00
75960;PMS7003;64644;48.914;2.254;2024-01-27T04:36:35;34.00;32.25;22.25
75960;PMS7003;64644;48.914;2.254;2024-01-27T04:39:01;35.25;33.50;23.00
75960;PMS7003;64644;48.914;2.254;2024-01-27T04:41:27;41.00;35.75;23.50
75960;PMS7003;64644;48.914;2.254;2024-01-27T04:43:52;35.00;31.33;22.33
75960;PMS7003;64644;48.914;2.254;2024-01-27T04:46:18;36.00;34.25;23.25
75960;PMS7003;64644;48.914;2.254;2024-01-27T04:48:43;39.50;36.50;24.75
75960;PMS7003;64644;48.914;2.254;2024-01-27T04:51:09;31.25;30.25;23.50
75960;PMS7003;64644;48.914;2.254;2024-01-27T04:53:36;39.25;34.25;25.00
75960;PMS7003;64644;48.914;2.254;2024-01-27T04:56:01;41.00;36.00;26.25
75960;PMS7003;64644;48.914;2.254;2024-01-27T04:58:26;33.75;33.75;23.25
75960;PMS7003;64644;48.914;2.254;2024-01-27T05:00:52;44.25;42.75;30.00
75960;PMS7003;64644;48.914;2.254;2024-01-27T05:03:17;40.00;40.00;29.00
75960;PMS7003;64644;48.914;2.254;2024-01-27T05:05:42;37.00;34.00;27.00
75960;PMS7003;64644;48.914;2.254;2024-01-27T05:08:08;40.25;37.00;26.75
75960;PMS7003;64644;48.914;2.254;2024-01-27T05:10:37;41.75;39.75;28.25
75960;PMS7003;64644;48.914;2.254;2024-01-27T05:13:02;39.00;34.00;24.33
75960;PMS7003;64644;48.914;2.254;2024-01-27T05:15:28;51.00;41.50;27.00
75960;PMS7003;64644;48.914;2.254;2024-01-27T05:17:53;44.33;42.33;30.00
75960;PMS7003;64644;48.914;2.254;2024-01-27T05:20:19;40.25;40.00;28.00
75960;PMS7003;64644;48.914;2.254;2024-01-27T05:22:45;44.75;39.75;28.00
75960;PMS7003;64644;48.914;2.254;2024-01-27T05:25:10;50.75;45.00;30.00
75960;PMS7003;64644;48.914;2.254;2024-01-27T05:27:39;36.75;35.00;26.75
75960;PMS7003;64644;48.914;2.254;2024-01-27T05:30:08;42.25;37.00;27.50
75960;PMS7003;64644;48.914;2.254;2024-01-27T05:32:33;51.50;44.50;28.75
75960;PMS7003;64644;48.914;2.254;2024-01-27T05:34:59;58.25;47.00;31.75
75960;PMS7003;64644;48.914;2.254;2024-01-27T05:37:24;47.25;45.25;30.00
75960;PMS7003;64644;48.914;2.254;2024-01-27T05:39:49;43.33;35.33;24.00
75960;PMS7003;64644;48.914;2.254;2024-01-27T05:42:15;57.00;45.67;32.33
75960;PMS7003;64644;48.914;2.254;2024-01-27T05:44:40;52.00;46.00;33.00
75960;PMS7003;64644;48.914;2.254;2024-01-27T05:47:06;50.33;45.00;31.67
75960;PMS7003;64644;48.914;2.254;2024-01-27T05:49:32;51.75;44.75;31.75
75960;PMS7003;64644;48.914;2.254;2024-01-27T05:51:57;52.00;47.75;30.00
75960;PMS7003;64644;48.914;2.254;2024-01-27T05:54:23;49.00;41.75;30.00
75960;PMS7003;64644;48.914;2.254;2024-01-27T05:56:49;61.00;52.75;34.00
75960;PMS7003;64644;48.914;2.254;2024-01-27T05:59:14;55.33;48.00;33.00
75960;PMS7003;64644;48.914;2.254;2024-01-27T06:01:39;54.00;45.67;30.67
75960;PMS7003;64644;48.914;2.254;2024-01-27T06:04:06;53.00;45.25;32.50
75960;PMS7003;64644;48.914;2.254;2024-01-27T06:06:31;55.50;48.00;30.25
75960;PMS7003;64644;48.914;2.254;2024-01-27T06:08:57;35.00;31.00;19.67
75960;PMS7003;64644;48.914;2.254;2024-01-27T06:11:25;55.00;48.00;32.33
75960;PMS7003;64644;48.914;2.254;2024-01-27T06:13:50;45.00;40.50;30.00
75960;PMS7003;64644;48.914;2.254;2024-01-27T06:16:17;62.33;50.33;33.00
75960;PMS7003;64644;48.914;2.254;2024-01-27T06:18:44;58.00;49.75;33.75
75960;PMS7003;64644;48.914;2.254;2024-01-27T06:21:10;53.50;43.25;29.75
75960;PMS7003;64644;48.914;2.254;2024-01-27T06:23:35;65.25;51.00;33.00
75960;PMS7003;64644;48.914;2.254;2024-01-27T06:26:04;68.50;50.00;33.00
75960;PMS7003;64644;48.914;2.254;2024-01-27T06:28:33;65.50;53.00;35.25
75960;PMS7003;64644;48.914;2.254;2024-01-27T06:30:59;52.75;46.75;30.50
75960;PMS7003;64644;48.914;2.254;2024-01-27T06:33:25;63.75;51.75;32.75
75960;PMS7003;64644;48.914;2.254;2024-01-27T06:35:50;50.25;46.75;32.50
75960;PMS7003;64644;48.914;2.254;2024-01-27T06:38:16;57.00;48.67;32.33
75960;PMS7003;64644;48.914;2.254;2024-01-27T06:40:41;56.00;47.33;33.33
75960;PMS7003;64644;48.914;2.254;2024-01-27T06:43:06;50.50;42.25;30.00
75960;PMS7003;64644;48.914;2.254;2024-01-27T06:45:32;45.00;43.50;27.75
75960;PMS7003;64644;48.914;2.254;2024-01-27T06:47:57;46.00;40.00;27.00
75960;PMS7003;64644;48.914;2.254;2024-01-27T06:50:22;36.75;35.75;25.00
75960;PMS7003;64644;48.914;2.254;2024-01-27T06:52:48;41.00;34.75;25.00
75960;PMS7003;64644;48.914;2.254;2024-01-27T06:55:13;33.50;30.75;24.25
75960;PMS7003;64644;48.914;2.254;2024-01-27T06:57:38;38.50;30.25;20.50
75960;PMS7003;64644;48.914;2.254;2024-01-27T07:00:06;37.75;31.25;24.00
75960;PMS7003;64644;48.914;2.254;2024-01-27T07:02:31;41.25;34.50;24.00
75960;PMS7003;64644;48.914;2.254;2024-01-27T07:04:57;34.00;30.67;24.67
75960;PMS7003;64644;48.914;2.254;2024-01-27T07:07:24;33.50;33.50;23.00
75960;PMS7003;64644;48.914;2.254;2024-01-27T07:09:51;42.50;38.50;26.00
75960;PMS7003;64644;48.914;2.254;2024-01-27T07:12:16;42.25;34.00;22.00
75960;PMS7003;64644;48.914;2.254;2024-01-27T07:14:42;39.33;33.33;25.67
75960;PMS7003;64644;48.914;2.254;2024-01-27T07:17:07;38.33;36.67;24.33
75960;PMS7003;64644;48.914;2.254;2024-01-27T07:19:32;35.33;32.33;24.00
75960;PMS7003;64644;48.914;2.254;2024-01-27T07:21:58;35.00;32.00;24.75
75960;PMS7003;64644;48.914;2.254;2024-01-27T07:24:24;33.00;27.50;18.75
75960;PMS7003;64644;48.914;2.254;2024-01-27T07:26:50;32.50;29.75;23.00
75960;PMS7003;64644;48.914;2.254;2024-01-27T07:29:15;43.67;33.33;25.00
75960;PMS7003;64644;48.914;2.254;2024-01-27T07:31:41;33.67;30.67;23.33
75960;PMS7003;64644;48.914;2.254;2024-01-27T07:34:06;31.00;27.50;21.00
75960;PMS7003;64644;48.914;2.254;2024-01-27T07:36:32;29.00;27.33;22.00
75960;PMS7003;64644;48.914;2.254;2024-01-27T07:38:57;35.75;29.00;20.00
75960;PMS7003;64644;48.914;2.254;2024-01-27T07:41:23;46.75;36.75;26.00
75960;PMS7003;64644;48.914;2.254;2024-01-27T07:43:49;32.75;30.75;23.75
75960;PMS7003;64644;48.914;2.254;2024-01-27T07:46:14;31.33;24.33;18.33
75960;PMS7003;64644;48.914;2.254;2024-01-27T07:48:40;1.00;0.00;0.00
75960;PMS7003;64644;48.914;2.254;2024-01-27T07:51:06;37.00;31.25;17.75
75960;PMS7003;64644;48.914;2.254;2024-01-27T07:53:31;34.75;32.25;21.50
75960;PMS7003;64644;48.914;2.254;2024-01-27T07:55:56;46.00;39.33;25.00
75960;PMS7003;64644;48.914;2.254;2024-01-27T07:58:22;42.75;37.50;30.00
75960;PMS7003;64644;48.914;2.254;2024-01-27T08:00:47;37.00;35.67;24.00
75960;PMS7003;64644;48.914;2.254;2024-01-27T08:03:12;33.33;31.00;24.00
75960;PMS7003;64644;48.914;2.254;2024-01-27T08:05:37;43.33;40.67;26.33
75960;PMS7003;64644;48.914;2.254;2024-01-27T08:08:03;37.00;34.67;25.67
75960;PMS7003;64644;48.914;2.254;2024-01-27T08:10:28;40.50;38.00;26.75
75960;PMS7003;64644;48.914;2.254;2024-01-27T08:12:54;32.50;31.50;21.00
75960;PMS7003;64644;48.914;2.254;2024-01-27T08:15:19;41.50;39.00;27.75
75960;PMS7003;64644;48.914;2.254;2024-01-27T08:17:45;42.50;40.00;29.50
75960;PMS7003;64644;48.914;2.254;2024-01-27T08:20:10;57.33;44.33;30.00
75960;PMS7003;64644;48.914;2.254;2024-01-27T08:22:36;44.00;36.75;23.00
75960;PMS7003;64644;48.914;2.254;2024-01-27T08:25:01;49.00;44.00;30.00
75960;PMS7003;64644;48.914;2.254;2024-01-27T08:27:26;30.25;30.00;22.00
75960;PMS7003;64644;48.914;2.254;2024-01-27T08:29:52;39.33;35.00;25.00
75960;PMS7003;64644;48.914;2.254;2024-01-27T08:32:17;44.00;41.75;28.00
75960;PMS7003;64644;48.914;2.254;2024-01-27T08:34:43;45.25;39.50;27.00
75960;PMS7003;64644;48.914;2.254;2024-01-27T08:37:15;44.00;40.67;29.33
75960;PMS7003;64644;48.914;2.254;2024-01-27T08:39:43;42.25;38.75;27.00
75960;PMS7003;64644;48.914;2.254;2024-01-27T08:42:08;39.50;35.00;22.00
75960;PMS7003;64644;48.914;2.254;2024-01-27T08:44:33;47.25;44.75;30.00
75960;PMS7003;64644;48.914;2.254;2024-01-27T08:46:59;45.33;40.00;29.00
75960;PMS7003;64644;48.914;2.254;2024-01-27T08:49:24;35.75;30.75;21.00
75960;PMS7003;64644;48.914;2.254;2024-01-27T08:51:49;37.67;36.33;27.67
75960;PMS7003;64644;48.914;2.254;2024-01-27T08:54:15;43.67;40.67;26.67
75960;PMS7003;64644;48.914;2.254;2024-01-27T08:56:40;42.33;36.33;26.33
75960;PMS7003;64644;48.914;2.254;2024-01-27T08:59:06;39.00;38.00;28.00
75960;PMS7003;64644;48.914;2.254;2024-01-27T09:01:31;48.25;44.00;28.75
75960;PMS7003;64644;48.914;2.254;2024-01-27T09:03:56;37.00;36.00;23.00
75960;PMS7003;64644;48.914;2.254;2024-01-27T09:06:22;46.67;43.00;29.33
75960;PMS7003;64644;48.914;2.254;2024-01-27T09:08:47;46.67;44.33;29.33
75960;PMS7003;64644;48.914;2.254;2024-01-27T09:11:12;53.33;45.33;29.00
75960;PMS7003;64644;48.914;2.254;2024-01-27T09:13:38;52.00;41.25;29.25
75960;PMS7003;64644;48.914;2.254;2024-01-27T09:16:03;47.00;41.67;29.00
75960;PMS7003;64644;48.914;2.254;2024-01-27T09:18:28;42.25;38.00;27.75
75960;PMS7003;64644;48.914;2.254;2024-01-27T09:20:54;51.50;46.25;31.50
75960;PMS7003;64644;48.914;2.254;2024-01-27T09:23:19;49.25;44.00;29.00
75960;PMS7003;64644;48.914;2.254;2024-01-27T09:25:45;37.75;31.50;20.00
75960;PMS7003;64644;48.914;2.254;2024-01-27T09:28:10;42.67;42.33;29.00
75960;PMS7003;64644;48.914;2.254;2024-01-27T09:30:36;47.50;40.75;29.00
75960;PMS7003;64644;48.914;2.254;2024-01-27T09:33:02;43.25;41.75;31.00
75960;PMS7003;64644;48.914;2.254;2024-01-27T09:35:27;48.00;42.75;29.75
75960;PMS7003;64644;48.914;2.254;2024-01-27T09:37:52;48.67;39.33;26.00
75960;PMS7003;64644;48.914;2.254;2024-01-27T09:40:18;48.00;42.33;28.00
75960;PMS7003;64644;48.914;2.254;2024-01-27T09:42:45;45.75;43.00;29.50
75960;PMS7003;64644;48.914;2.254;2024-01-27T09:45:19;53.00;45.50;29.00
75960;PMS7003;64644;48.914;2.254;2024-01-27T09:47:46;47.00;42.75;29.00
75960;PMS7003;64644;48.914;2.254;2024-01-27T09:50:12;48.25;43.00;31.25
75960;PMS7003;64644;48.914;2.254;2024-01-27T09:52:39;40.50;37.00;25.50
75960;PMS7003;64644;48.914;2.254;2024-01-27T09:55:05;41.00;38.25;28.25
75960;PMS7003;64644;48.914;2.254;2024-01-27T09:57:30;42.75;40.75;26.00
75960;PMS7003;64644;48.914;2.254;2024-01-27T09:59:56;43.75;37.75;27.25
75960;PMS7003;64644;48.914;2.254;2024-01-27T10:02:22;22.75;16.00;2.50
75960;PMS7003;64644;48.914;2.254;2024-01-27T10:04:49;50.00;44.50;30.25
75960;PMS7003;64644;48.914;2.254;2024-01-27T10:07:16;47.25;41.75;27.50
75960;PMS7003;64644;48.914;2.254;2024-01-27T10:09:41;40.75;36.75;25.75
75960;PMS7003;64644;48.914;2.254;2024-01-27T10:12:08;47.25;42.75;28.00
75960;PMS7003;64644;48.914;2.254;2024-01-27T10:14:38;41.75;38.75;26.50
75960;PMS7003;64644;48.914;2.254;2024-01-27T10:17:05;44.50;41.75;28.25
75960;PMS7003;64644;48.914;2.254;2024-01-27T10:19:30;35.50;35.50;21.50
75960;PMS7003;64644;48.914;2.254;2024-01-27T10:22:02;54.25;44.25;28.00
75960;PMS7003;64644;48.914;2.254;2024-01-27T10:24:28;47.50;42.75;28.00
75960;PMS7003;64644;48.914;2.254;2024-01-27T10:27:03;43.50;41.00;30.75
75960;PMS7003;64644;48.914;2.254;2024-01-27T10:29:29;50.25;38.00;27.75
75960;PMS7003;64644;48.914;2.254;2024-01-27T10:31:55;46.00;40.50;26.75
75960;PMS7003;64644;48.914;2.254;2024-01-27T10:34:21;42.75;41.50;29.50
75960;PMS7003;64644;48.914;2.254;2024-01-27T10:36:46;44.75;39.25;28.25
75960;PMS7003;64644;48.914;2.254;2024-01-27T10:39:18;48.50;43.00;28.00
75960;PMS7003;64644;48.914;2.254;2024-01-27T10:41:45;38.75;37.25;27.25
75960;PMS7003;64644;48.914;2.254;2024-01-27T10:44:15;34.50;30.25;19.25
75960;PMS7003;64644;48.914;2.254;2024-01-27T10:46:45;11.75;10.25;6.00
75960;PMS7003;64644;48.914;2.254;2024-01-27T10:49:13;11.50;11.50;8.00
75960;PMS7003;64644;48.914;2.254;2024-01-27T10:51:54;15.00;11.75;9.00
75960;PMS7003;64644;48.914;2.254;2024-01-27T10:54:24;12.50;9.75;7.50
75960;PMS7003;64644;48.914;2.254;2024-01-27T10:56:53;9.50;7.00;5.50
75960;PMS7003;64644;48.914;2.254;2024-01-27T10:59:21;8.25;8.25;6.00
75960;PMS7003;64644;48.914;2.254;2024-01-27T11:01:48;8.25;7.00;5.00
75960;PMS7003;64644;48.914;2.254;2024-01-27T11:04:16;9.00;9.00;6.50
75960;PMS7003;64644;48.914;2.254;2024-01-27T11:06:42;10.00;9.75;8.00
75960;PMS7003;64644;48.914;2.254;2024-01-27T11:09:09;11.00;9.25;6.50
75960;PMS7003;64644;48.914;2.254;2024-01-27T11:11:37;11.00;8.00;6.00
75960;PMS7003;64644;48.914;2.254;2024-01-27T11:14:03;10.75;8.75;6.00
75960;PMS7003;64644;48.914;2.254;2024-01-27T11:16:28;12.75;11.50;8.00
75960;PMS7003;64644;48.914;2.254;2024-01-27T11:18:54;12.50;9.00;7.50
75960;PMS7003;64644;48.914;2.254;2024-01-27T11:21:19;9.75;7.00;4.00
75960;PMS7003;64644;48.914;2.254;2024-01-27T11:23:45;8.50;8.25;6.00
75960;PMS7003;64644;48.914;2.254;2024-01-27T11:26:16;8.50;6.00;5.25
75960;PMS7003;64644;48.914;2.254;2024-01-27T11:28:44;12.75;8.00;5.00
75960;PMS7003;64644;48.914;2.254;2024-01-27T11:31:10;12.00;11.33;6.00
75960;PMS7003;64644;48.914;2.254;2024-01-27T11:33:42;9.25;8.00;6.00
75960;PMS7003;64644;48.914;2.254;2024-01-27T11:36:14;9.00;6.00;5.75
75960;PMS7003;64644;48.914;2.254;2024-01-27T11:38:47;11.25;9.75;5.75
75960;PMS7003;64644;48.914;2.254;2024-01-27T11:41:13;6.50;5.75;4.50
75960;PMS7003;64644;48.914;2.254;2024-01-27T11:43:51;9.50;8.25;5.00
75960;PMS7003;64644;48.914;2.254;2024-01-27T11:46:20;8.50;8.00;5.00
75960;PMS7003;64644;48.914;2.254;2024-01-27T11:48:45;7.25;5.75;4.00
75960;PMS7003;64644;48.914;2.254;2024-01-27T11:51:11;6.25;5.75;5.00
75960;PMS7003;64644;48.914;2.254;2024-01-27T11:53:37;12.00;9.25;5.00
75960;PMS7003;64644;48.914;2.254;2024-01-27T11:56:03;5.75;5.00;5.00
75960;PMS7003;64644;48.914;2.254;2024-01-27T11:58:29;6.50;6.50;5.50
75960;PMS7003;64644;48.914;2.254;2024-01-27T12:00:55;6.75;6.75;5.00
75960;PMS7003;64644;48.914;2.254;2024-01-27T12:03:21;8.50;6.00;5.00
75960;PMS7003;64644;48.914;2.254;2024-01-27T12:05:47;6.00;4.75;2.25
75960;PMS7003;64644;48.914;2.254;2024-01-27T12:08:13;6.00;6.00;4.50
75960;PMS7003;64644;48.914;2.254;2024-01-27T12:10:38;6.00;6.00;4.75
75960;PMS7003;64644;48.914;2.254;2024-01-27T12:13:03;8.25;5.75;3.50
75960;PMS7003;64644;48.914;2.254;2024-01-27T12:15:29;9.00;5.75;4.00
75960;PMS7003;64644;48.914;2.254;2024-01-27T12:17:54;6.75;6.50;3.25
75960;PMS7003;64644;48.914;2.254;2024-01-27T12:20:21;6.00;6.00;5.00
75960;PMS7003;64644;48.914;2.254;2024-01-27T12:22:47;6.50;5.00;5.00
75960;PMS7003;64644;48.914;2.254;2024-01-27T12:25:15;6.00;6.00;5.00
75960;PMS7003;64644;48.914;2.254;2024-01-27T12:27:41;7.00;6.25;4.75
75960;PMS7003;64644;48.914;2.254;2024-01-27T12:30:06;5.00;5.00;3.25
75960;PMS7003;64644;48.914;2.254;2024-01-27T12:32:33;8.75;8.75;5.25
75960;PMS7003;64644;48.914;2.254;2024-01-27T12:34:58;8.50;6.00;4.50
75960;PMS7003;64644;48.914;2.254;2024-01-27T12:37:25;7.25;7.25;4.50
75960;PMS7003;64644;48.914;2.254;2024-01-27T12:39:51;6.00;6.00;3.00
75960;PMS7003;64644;48.914;2.254;2024-01-27T12:42:17;7.00;7.00;5.00
75960;PMS7003;64644;48.914;2.254;2024-01-27T12:44:42;7.25;6.00;5.50
75960;PMS7003;64644;48.914;2.254;2024-01-27T12:47:11;10.50;10.50;5.50
75960;PMS7003;64644;48.914;2.254;2024-01-27T12:49:38;7.75;6.00;5.00
75960;PMS7003;64644;48.914;2.254;2024-01-27T12:52:03;9.25;8.25;6.00
75960;PMS7003;64644;48.914;2.254;2024-01-27T12:54:30;9.50;8.00;6.00
75960;PMS7003;64644;48.914;2.254;2024-01-27T12:56:56;9.00;7.75;3.50
75960;PMS7003;64644;48.914;2.254;2024-01-27T12:59:21;7.75;4.75;3.50
75960;PMS7003;64644;48.914;2.254;2024-01-27T13:01:48;3.25;3.25;2.75
75960;PMS7003;64644;48.914;2.254;2024-01-27T13:04:14;3.50;3.25;2.00
75960;PMS7003;64644;48.914;2.254;2024-01-27T13:06:39;5.75;4.25;2.75
75960;PMS7003;64644;48.914;2.254;2024-01-27T13:09:05;6.75;6.75;5.00
75960;PMS7003;64644;48.914;2.254;2024-01-27T13:11:30;11.75;6.50;5.00
75960;PMS7003;64644;48.914;2.254;2024-01-27T13:13:55;5.25;4.75;3.25
75960;PMS7003;64644;48.914;2.254;2024-01-27T13:16:21;3.50;3.25;2.25
75960;PMS7003;64644;48.914;2.254;2024-01-27T13:18:46;3.75;3.75;2.00
75960;PMS7003;64644;48.914;2.254;2024-01-27T13:21:12;5.50;5.50;5.00
75960;PMS7003;64644;48.914;2.254;2024-01-27T13:23:37;5.25;5.00;3.50
75960;PMS7003;64644;48.914;2.254;2024-01-27T13:26:03;12.00;6.50;5.00
75960;PMS7003;64644;48.914;2.254;2024-01-27T13:28:29;7.25;6.00;4.75
75960;PMS7003;64644;48.914;2.254;2024-01-27T13:30:54;5.25;5.00;2.00
75960;PMS7003;64644;48.914;2.254;2024-01-27T13:33:20;8.75;7.25;5.00
75960;PMS7003;64644;48.914;2.254;2024-01-27T13:35:45;7.00;7.00;5.50
75960;PMS7003;64644;48.914;2.254;2024-01-27T13:38:12;7.25;6.00;5.00
75960;PMS7003;64644;48.914;2.254;2024-01-27T13:40:38;5.50;5.25;5.00
75960;PMS7003;64644;48.914;2.254;2024-01-27T13:43:03;5.50;5.50;5.00
75960;PMS7003;64644;48.914;2.254;2024-01-27T13:45:29;7.25;7.25;5.50
75960;PMS7003;64644;48.914;2.254;2024-01-27T13:47:55;9.25;7.00;5.00